sensor_id;sensor_type;location;lat;lon;timestamp;P1;durP1;ratioP1;P2;durP2;ratioP2
17858;SDS011;35426;30.698;104.050;2023-08-21T00:00:52;36.97;;;18.27;;
17858;SDS011;35426;30.698;104.050;2023-08-21T00:03:25;31.45;;;16.92;;
17858;SDS011;35426;30.698;104.050;2023-08-21T00:05:59;31.15;;;15.63;;
17858;SDS011;35426;30.698;104.050;2023-08-21T00:08:32;34.88;;;17.42;;
17858;SDS011;35426;30.698;104.050;2023-08-21T00:11:08;36.05;;;14.98;;
17858;SDS011;35426;30.698;104.050;2023-08-21T00:13:42;34.20;;;16.60;;
17858;SDS011;35426;30.698;104.050;2023-08-21T00:16:17;37.60;;;16.27;;
17858;SDS011;35426;30.698;104.050;2023-08-21T00:18:50;37.45;;;16.75;;
17858;SDS011;35426;30.698;104.050;2023-08-21T00:21:24;35.67;;;16.60;;
17858;SDS011;35426;30.698;104.050;2023-08-21T00:23:57;42.33;;;16.80;;
17858;SDS011;35426;30.698;104.050;2023-08-21T00:26:32;35.88;;;16.38;;
17858;SDS011;35426;30.698;104.050;2023-08-21T00:29:05;32.28;;;15.98;;
17858;SDS011;35426;30.698;104.050;2023-08-21T00:31:37;30.73;;;15.55;;
17858;SDS011;35426;30.698;104.050;2023-08-21T00:34:11;41.67;;;14.77;;
17858;SDS011;35426;30.698;104.050;2023-08-21T00:36:44;36.03;;;16.50;;
17858;SDS011;35426;30.698;104.050;2023-08-21T00:39:18;33.47;;;15.68;;
17858;SDS011;35426;30.698;104.050;2023-08-21T00:41:53;31.38;;;16.52;;
17858;SDS011;35426;30.698;104.050;2023-08-21T00:44:26;34.13;;;16.80;;
17858;SDS011;35426;30.698;104.050;2023-08-21T00:46:59;32.20;;;14.20;;
17858;SDS011;35426;30.698;104.050;2023-08-21T00:49:32;33.55;;;15.30;;
17858;SDS011;35426;30.698;104.050;2023-08-21T00:52:05;29.20;;;14.63;;
17858;SDS011;35426;30.698;104.050;2023-08-21T00:54:45;34.00;;;15.77;;
17858;SDS011;35426;30.698;104.050;2023-08-21T00:57:20;33.05;;;16.92;;
17858;SDS011;35426;30.698;104.050;2023-08-21T00:59:54;33.17;;;16.92;;
17858;SDS011;35426;30.698;104.050;2023-08-21T01:02:27;35.38;;;16.10;;
17858;SDS011;35426;30.698;104.050;2023-08-21T01:05:00;38.00;;;17.27;;
17858;SDS011;35426;30.698;104.050;2023-08-21T01:07:36;36.13;;;18.00;;
17858;SDS011;35426;30.698;104.050;2023-08-21T01:10:20;38.25;;;18.65;;
17858;SDS011;35426;30.698;104.050;2023-08-21T01:13:09;38.22;;;19.20;;
17858;SDS011;35426;30.698;104.050;2023-08-21T01:15:51;36.45;;;17.40;;
17858;SDS011;35426;30.698;104.050;2023-08-21T01:18:25;40.70;;;17.52;;
17858;SDS011;35426;30.698;104.050;2023-08-21T01:20:59;38.47;;;18.27;;
17858;SDS011;35426;30.698;104.050;2023-08-21T01:23:36;38.83;;;16.38;;
17858;SDS011;35426;30.698;104.050;2023-08-21T01:26:10;39.17;;;15.95;;
17858;SDS011;35426;30.698;104.050;2023-08-21T01:28:43;34.10;;;15.70;;
17858;SDS011;35426;30.698;104.050;2023-08-21T01:31:19;37.92;;;15.95;;
17858;SDS011;35426;30.698;104.050;2023-08-21T01:33:58;36.38;;;15.38;;
17858;SDS011;35426;30.698;104.050;2023-08-21T01:36:35;27.50;;;11.95;;
17858;SDS011;35426;30.698;104.050;2023-08-21T01:39:11;28.45;;;13.50;;
17858;SDS011;35426;30.698;104.050;2023-08-21T01:41:44;28.27;;;12.90;;
17858;SDS011;35426;30.698;104.050;2023-08-21T01:44:17;33.78;;;12.70;;
17858;SDS011;35426;30.698;104.050;2023-08-21T01:46:51;33.42;;;14.68;;
17858;SDS011;35426;30.698;104.050;2023-08-21T01:49:25;27.60;;;12.60;;
17858;SDS011;35426;30.698;104.050;2023-08-21T01:51:58;29.95;;;12.25;;
17858;SDS011;35426;30.698;104.050;2023-08-21T01:54:34;30.67;;;13.65;;
17858;SDS011;35426;30.698;104.050;2023-08-21T01:57:09;33.45;;;12.30;;
17858;SDS011;35426;30.698;104.050;2023-08-21T01:59:44;27.92;;;11.95;;
17858;SDS011;35426;30.698;104.050;2023-08-21T02:02:17;28.27;;;11.93;;
17858;SDS011;35426;30.698;104.050;2023-08-21T02:04:51;32.15;;;12.40;;
17858;SDS011;35426;30.698;104.050;2023-08-21T02:07:24;29.42;;;12.32;;
17858;SDS011;35426;30.698;104.050;2023-08-21T02:10:00;29.58;;;10.93;;
17858;SDS011;35426;30.698;104.050;2023-08-21T02:12:34;23.05;;;10.10;;
17858;SDS011;35426;30.698;104.050;2023-08-21T02:15:09;30.15;;;12.45;;
17858;SDS011;35426;30.698;104.050;2023-08-21T02:17:43;25.17;;;11.98;;
17858;SDS011;35426;30.698;104.050;2023-08-21T02:20:17;30.63;;;11.25;;
17858;SDS011;35426;30.698;104.050;2023-08-21T02:22:50;21.83;;;10.07;;
17858;SDS011;35426;30.698;104.050;2023-08-21T02:25:25;31.10;;;11.80;;
17858;SDS011;35426;30.698;104.050;2023-08-21T02:27:59;25.95;;;11.18;;
17858;SDS011;35426;30.698;104.050;2023-08-21T02:30:34;28.63;;;13.07;;
17858;SDS011;35426;30.698;104.050;2023-08-21T02:33:11;26.52;;;11.98;;
17858;SDS011;35426;30.698;104.050;2023-08-21T02:35:44;29.17;;;11.68;;
17858;SDS011;35426;30.698;104.050;2023-08-21T02:38:18;24.67;;;11.02;;
17858;SDS011;35426;30.698;104.050;2023-08-21T02:40:54;27.83;;;13.02;;
17858;SDS011;35426;30.698;104.050;2023-08-21T02:43:27;30.50;;;13.25;;
17858;SDS011;35426;30.698;104.050;2023-08-21T02:46:01;25.73;;;12.30;;
17858;SDS011;35426;30.698;104.050;2023-08-21T02:48:35;26.95;;;11.88;;
17858;SDS011;35426;30.698;104.050;2023-08-21T02:51:08;31.70;;;11.13;;
17858;SDS011;35426;30.698;104.050;2023-08-21T02:53:41;26.88;;;10.77;;
17858;SDS011;35426;30.698;104.050;2023-08-21T02:56:16;25.73;;;11.00;;
17858;SDS011;35426;30.698;104.050;2023-08-21T02:58:49;23.95;;;10.07;;
17858;SDS011;35426;30.698;104.050;2023-08-21T03:01:22;28.38;;;10.10;;
17858;SDS011;35426;30.698;104.050;2023-08-21T03:03:56;25.30;;;9.15;;
17858;SDS011;35426;30.698;104.050;2023-08-21T03:06:29;21.30;;;8.98;;
17858;SDS011;35426;30.698;104.050;2023-08-21T03:09:03;24.00;;;9.23;;
17858;SDS011;35426;30.698;104.050;2023-08-21T03:11:39;22.27;;;9.20;;
17858;SDS011;35426;30.698;104.050;2023-08-21T03:14:13;25.23;;;10.18;;
17858;SDS011;35426;30.698;104.050;2023-08-21T03:16:46;24.50;;;10.23;;
17858;SDS011;35426;30.698;104.050;2023-08-21T03:19:19;22.48;;;9.00;;
17858;SDS011;35426;30.698;104.050;2023-08-21T03:21:52;18.80;;;8.23;;
17858;SDS011;35426;30.698;104.050;2023-08-21T03:24:26;17.75;;;8.07;;
17858;SDS011;35426;30.698;104.050;2023-08-21T03:27:02;21.25;;;7.55;;
17858;SDS011;35426;30.698;104.050;2023-08-21T03:29:36;25.05;;;8.60;;
17858;SDS011;35426;30.698;104.050;2023-08-21T03:32:10;25.20;;;8.77;;
17858;SDS011;35426;30.698;104.050;2023-08-21T03:34:43;16.42;;;7.68;;
17858;SDS011;35426;30.698;104.050;2023-08-21T03:37:17;24.73;;;8.40;;
17858;SDS011;35426;30.698;104.050;2023-08-21T03:39:51;20.52;;;8.02;;
17858;SDS011;35426;30.698;104.050;2023-08-21T03:42:26;16.23;;;7.50;;
17858;SDS011;35426;30.698;104.050;2023-08-21T03:45:00;20.75;;;8.35;;
17858;SDS011;35426;30.698;104.050;2023-08-21T03:47:35;15.45;;;7.88;;
17858;SDS011;35426;30.698;104.050;2023-08-21T03:50:16;20.33;;;8.73;;
17858;SDS011;35426;30.698;104.050;2023-08-21T03:52:49;19.95;;;8.25;;
17858;SDS011;35426;30.698;104.050;2023-08-21T03:55:23;21.60;;;8.07;;
17858;SDS011;35426;30.698;104.050;2023-08-21T03:57:58;17.88;;;7.40;;
17858;SDS011;35426;30.698;104.050;2023-08-21T04:00:33;20.05;;;8.07;;
17858;SDS011;35426;30.698;104.050;2023-08-21T04:03:06;29.23;;;10.02;;
17858;SDS011;35426;30.698;104.050;2023-08-21T04:05:39;25.67;;;10.40;;
17858;SDS011;35426;30.698;104.050;2023-08-21T04:08:12;26.55;;;11.68;;
17858;SDS011;35426;30.698;104.050;2023-08-21T04:10:45;25.65;;;9.40;;
17858;SDS011;35426;30.698;104.050;2023-08-21T04:13:20;22.17;;;9.15;;
17858;SDS011;35426;30.698;104.050;2023-08-21T04:15:54;23.35;;;9.95;;
17858;SDS011;35426;30.698;104.050;2023-08-21T04:18:27;20.58;;;8.88;;
17858;SDS011;35426;30.698;104.050;2023-08-21T04:21:08;24.67;;;10.80;;
17858;SDS011;35426;30.698;104.050;2023-08-21T04:23:41;27.15;;;10.77;;
17858;SDS011;35426;30.698;104.050;2023-08-21T04:26:16;20.27;;;9.98;;
17858;SDS011;35426;30.698;104.050;2023-08-21T04:28:52;22.40;;;10.27;;
17858;SDS011;35426;30.698;104.050;2023-08-21T04:31:25;23.10;;;10.77;;
17858;SDS011;35426;30.698;104.050;2023-08-21T04:33:59;28.63;;;10.75;;
17858;SDS011;35426;30.698;104.050;2023-08-21T04:36:34;28.52;;;10.63;;
17858;SDS011;35426;30.698;104.050;2023-08-21T04:39:07;24.98;;;10.60;;
17858;SDS011;35426;30.698;104.050;2023-08-21T04:41:41;30.25;;;12.98;;
17858;SDS011;35426;30.698;104.050;2023-08-21T04:44:17;28.13;;;13.27;;
17858;SDS011;35426;30.698;104.050;2023-08-21T04:46:51;31.88;;;13.48;;
17858;SDS011;35426;30.698;104.050;2023-08-21T04:49:25;29.65;;;13.65;;
17858;SDS011;35426;30.698;104.050;2023-08-21T04:52:08;29.70;;;12.25;;
17858;SDS011;35426;30.698;104.050;2023-08-21T04:54:42;28.17;;;13.13;;
17858;SDS011;35426;30.698;104.050;2023-08-21T04:57:16;26.42;;;12.30;;
17858;SDS011;35426;30.698;104.050;2023-08-21T04:59:54;27.88;;;12.00;;
17858;SDS011;35426;30.698;104.050;2023-08-21T05:02:34;28.08;;;13.63;;
17858;SDS011;35426;30.698;104.050;2023-08-21T05:05:08;30.45;;;12.73;;
17858;SDS011;35426;30.698;104.050;2023-08-21T05:07:41;28.38;;;12.80;;
17858;SDS011;35426;30.698;104.050;2023-08-21T05:10:15;25.42;;;11.40;;
17858;SDS011;35426;30.698;104.050;2023-08-21T05:12:49;32.38;;;12.00;;
17858;SDS011;35426;30.698;104.050;2023-08-21T05:15:24;28.63;;;11.27;;
17858;SDS011;35426;30.698;104.050;2023-08-21T05:17:58;30.45;;;12.55;;
17858;SDS011;35426;30.698;104.050;2023-08-21T05:20:32;28.17;;;11.73;;
17858;SDS011;35426;30.698;104.050;2023-08-21T05:23:05;28.85;;;13.80;;
17858;SDS011;35426;30.698;104.050;2023-08-21T05:25:39;28.50;;;12.10;;
17858;SDS011;35426;30.698;104.050;2023-08-21T05:28:13;24.27;;;12.98;;
17858;SDS011;35426;30.698;104.050;2023-08-21T05:30:48;29.75;;;13.70;;
17858;SDS011;35426;30.698;104.050;2023-08-21T05:33:22;29.25;;;14.40;;
17858;SDS011;35426;30.698;104.050;2023-08-21T05:35:56;35.53;;;16.35;;
17858;SDS011;35426;30.698;104.050;2023-08-21T05:38:29;33.85;;;15.25;;
17858;SDS011;35426;30.698;104.050;2023-08-21T05:41:03;32.75;;;16.13;;
17858;SDS011;35426;30.698;104.050;2023-08-21T05:43:36;32.50;;;15.43;;
17858;SDS011;35426;30.698;104.050;2023-08-21T05:46:13;41.72;;;16.70;;
17858;SDS011;35426;30.698;104.050;2023-08-21T05:48:50;36.08;;;16.67;;
17858;SDS011;35426;30.698;104.050;2023-08-21T05:51:23;30.23;;;15.82;;
17858;SDS011;35426;30.698;104.050;2023-08-21T05:53:57;34.55;;;17.15;;
17858;SDS011;35426;30.698;104.050;2023-08-21T05:56:30;38.60;;;15.55;;
17858;SDS011;35426;30.698;104.050;2023-08-21T05:59:03;35.33;;;17.23;;
17858;SDS011;35426;30.698;104.050;2023-08-21T06:01:38;40.35;;;16.08;;
17858;SDS011;35426;30.698;104.050;2023-08-21T06:04:11;37.00;;;17.88;;
17858;SDS011;35426;30.698;104.050;2023-08-21T06:06:55;34.10;;;14.90;;
17858;SDS011;35426;30.698;104.050;2023-08-21T06:09:28;31.83;;;15.75;;
17858;SDS011;35426;30.698;104.050;2023-08-21T06:12:05;41.42;;;19.83;;
17858;SDS011;35426;30.698;104.050;2023-08-21T06:14:41;37.25;;;18.58;;
17858;SDS011;35426;30.698;104.050;2023-08-21T06:17:17;37.90;;;18.38;;
17858;SDS011;35426;30.698;104.050;2023-08-21T06:19:52;36.63;;;18.30;;
17858;SDS011;35426;30.698;104.050;2023-08-21T06:22:26;34.72;;;16.08;;
17858;SDS011;35426;30.698;104.050;2023-08-21T06:25:00;39.95;;;16.60;;
17858;SDS011;35426;30.698;104.050;2023-08-21T06:27:33;38.05;;;16.13;;
17858;SDS011;35426;30.698;104.050;2023-08-21T06:30:23;34.92;;;14.65;;
17858;SDS011;35426;30.698;104.050;2023-08-21T06:32:58;37.50;;;15.13;;
17858;SDS011;35426;30.698;104.050;2023-08-21T06:35:31;34.53;;;15.38;;
17858;SDS011;35426;30.698;104.050;2023-08-21T06:38:07;44.35;;;17.08;;
17858;SDS011;35426;30.698;104.050;2023-08-21T06:40:40;35.08;;;17.90;;
17858;SDS011;35426;30.698;104.050;2023-08-21T06:43:13;36.13;;;17.33;;
17858;SDS011;35426;30.698;104.050;2023-08-21T06:45:47;45.42;;;18.25;;
17858;SDS011;35426;30.698;104.050;2023-08-21T06:48:24;46.15;;;18.75;;
17858;SDS011;35426;30.698;104.050;2023-08-21T06:50:57;30.23;;;16.33;;
17858;SDS011;35426;30.698;104.050;2023-08-21T06:53:32;38.30;;;19.75;;
17858;SDS011;35426;30.698;104.050;2023-08-21T06:56:06;35.78;;;17.83;;
17858;SDS011;35426;30.698;104.050;2023-08-21T06:58:39;38.90;;;17.42;;
17858;SDS011;35426;30.698;104.050;2023-08-21T07:01:12;40.15;;;16.90;;
17858;SDS011;35426;30.698;104.050;2023-08-21T07:03:47;33.95;;;16.92;;
17858;SDS011;35426;30.698;104.050;2023-08-21T07:06:21;36.40;;;17.35;;
17858;SDS011;35426;30.698;104.050;2023-08-21T07:08:53;34.72;;;15.57;;
17858;SDS011;35426;30.698;104.050;2023-08-21T07:11:26;40.80;;;17.15;;
17858;SDS011;35426;30.698;104.050;2023-08-21T07:13:59;40.45;;;18.00;;
17858;SDS011;35426;30.698;104.050;2023-08-21T07:16:32;38.33;;;18.98;;
17858;SDS011;35426;30.698;104.050;2023-08-21T07:19:07;39.47;;;18.20;;
17858;SDS011;35426;30.698;104.050;2023-08-21T07:21:42;35.97;;;17.50;;
17858;SDS011;35426;30.698;104.050;2023-08-21T07:24:15;39.25;;;17.52;;
17858;SDS011;35426;30.698;104.050;2023-08-21T07:26:48;39.53;;;17.63;;
17858;SDS011;35426;30.698;104.050;2023-08-21T07:29:22;40.60;;;18.25;;
17858;SDS011;35426;30.698;104.050;2023-08-21T07:31:55;38.42;;;16.30;;
17858;SDS011;35426;30.698;104.050;2023-08-21T07:34:30;35.67;;;16.08;;
17858;SDS011;35426;30.698;104.050;2023-08-21T07:37:03;35.22;;;16.33;;
17858;SDS011;35426;30.698;104.050;2023-08-21T07:39:38;32.15;;;15.57;;
17858;SDS011;35426;30.698;104.050;2023-08-21T07:42:11;42.53;;;17.33;;
17858;SDS011;35426;30.698;104.050;2023-08-21T07:44:44;30.92;;;14.18;;
17858;SDS011;35426;30.698;104.050;2023-08-21T07:47:17;29.02;;;14.60;;
17858;SDS011;35426;30.698;104.050;2023-08-21T07:49:52;35.50;;;15.05;;
17858;SDS011;35426;30.698;104.050;2023-08-21T07:52:25;33.22;;;14.73;;
17858;SDS011;35426;30.698;104.050;2023-08-21T07:54:58;33.38;;;15.60;;
17858;SDS011;35426;30.698;104.050;2023-08-21T07:57:31;31.33;;;15.38;;
17858;SDS011;35426;30.698;104.050;2023-08-21T08:00:05;31.73;;;14.57;;
17858;SDS011;35426;30.698;104.050;2023-08-21T08:02:42;32.35;;;14.52;;
17858;SDS011;35426;30.698;104.050;2023-08-21T08:05:17;39.15;;;14.80;;
17858;SDS011;35426;30.698;104.050;2023-08-21T08:07:51;38.03;;;14.68;;
17858;SDS011;35426;30.698;104.050;2023-08-21T08:10:24;34.78;;;14.10;;
17858;SDS011;35426;30.698;104.050;2023-08-21T08:12:57;33.83;;;15.95;;
17858;SDS011;35426;30.698;104.050;2023-08-21T08:15:31;33.35;;;14.98;;
17858;SDS011;35426;30.698;104.050;2023-08-21T08:18:09;31.30;;;13.95;;
17858;SDS011;35426;30.698;104.050;2023-08-21T08:20:46;31.38;;;14.27;;
17858;SDS011;35426;30.698;104.050;2023-08-21T08:23:24;30.00;;;14.25;;
17858;SDS011;35426;30.698;104.050;2023-08-21T08:25:57;27.83;;;14.85;;
17858;SDS011;35426;30.698;104.050;2023-08-21T08:28:31;29.05;;;14.38;;
17858;SDS011;35426;30.698;104.050;2023-08-21T08:31:05;35.45;;;14.82;;
17858;SDS011;35426;30.698;104.050;2023-08-21T08:33:39;34.05;;;14.25;;
17858;SDS011;35426;30.698;104.050;2023-08-21T08:36:15;28.52;;;14.18;;
17858;SDS011;35426;30.698;104.050;2023-08-21T08:38:48;29.52;;;14.48;;
17858;SDS011;35426;30.698;104.050;2023-08-21T08:41:24;30.30;;;13.73;;
17858;SDS011;35426;30.698;104.050;2023-08-21T08:44:03;30.60;;;13.52;;
17858;SDS011;35426;30.698;104.050;2023-08-21T08:46:37;30.42;;;14.02;;
17858;SDS011;35426;30.698;104.050;2023-08-21T08:49:11;25.63;;;12.70;;
17858;SDS011;35426;30.698;104.050;2023-08-21T08:51:47;33.92;;;13.48;;
17858;SDS011;35426;30.698;104.050;2023-08-21T08:54:22;29.17;;;13.82;;
17858;SDS011;35426;30.698;104.050;2023-08-21T08:56:58;28.70;;;13.32;;
17858;SDS011;35426;30.698;104.050;2023-08-21T08:59:32;31.20;;;13.15;;
17858;SDS011;35426;30.698;104.050;2023-08-21T09:02:08;32.88;;;13.40;;
17858;SDS011;35426;30.698;104.050;2023-08-21T09:04:42;25.30;;;13.07;;
17858;SDS011;35426;30.698;104.050;2023-08-21T09:07:19;30.02;;;12.93;;
17858;SDS011;35426;30.698;104.050;2023-08-21T09:09:53;29.95;;;14.13;;
17858;SDS011;35426;30.698;104.050;2023-08-21T09:12:27;28.10;;;12.93;;
17858;SDS011;35426;30.698;104.050;2023-08-21T09:15:06;29.70;;;13.52;;
17858;SDS011;35426;30.698;104.050;2023-08-21T09:17:40;26.98;;;12.68;;
17858;SDS011;35426;30.698;104.050;2023-08-21T09:20:13;30.73;;;13.75;;
17858;SDS011;35426;30.698;104.050;2023-08-21T09:22:54;31.58;;;13.38;;
17858;SDS011;35426;30.698;104.050;2023-08-21T09:25:28;36.42;;;14.40;;
17858;SDS011;35426;30.698;104.050;2023-08-21T09:28:06;29.05;;;13.45;;
17858;SDS011;35426;30.698;104.050;2023-08-21T09:30:46;35.33;;;13.65;;
17858;SDS011;35426;30.698;104.050;2023-08-21T09:33:21;31.33;;;13.38;;
17858;SDS011;35426;30.698;104.050;2023-08-21T09:35:56;25.00;;;14.00;;
17858;SDS011;35426;30.698;104.050;2023-08-21T09:38:31;26.00;;;14.02;;
17858;SDS011;35426;30.698;104.050;2023-08-21T09:41:06;28.15;;;14.23;;
17858;SDS011;35426;30.698;104.050;2023-08-21T09:43:41;35.22;;;14.27;;
17858;SDS011;35426;30.698;104.050;2023-08-21T09:46:14;34.88;;;14.32;;
17858;SDS011;35426;30.698;104.050;2023-08-21T09:48:48;29.52;;;14.10;;
17858;SDS011;35426;30.698;104.050;2023-08-21T09:51:25;31.50;;;13.98;;
17858;SDS011;35426;30.698;104.050;2023-08-21T09:54:00;32.42;;;14.82;;
17858;SDS011;35426;30.698;104.050;2023-08-21T09:56:35;39.95;;;15.15;;
17858;SDS011;35426;30.698;104.050;2023-08-21T09:59:08;31.25;;;14.95;;
17858;SDS011;35426;30.698;104.050;2023-08-21T10:01:44;35.05;;;14.73;;
17858;SDS011;35426;30.698;104.050;2023-08-21T10:04:21;30.00;;;14.18;;
17858;SDS011;35426;30.698;104.050;2023-08-21T10:06:56;32.80;;;14.80;;
17858;SDS011;35426;30.698;104.050;2023-08-21T10:09:31;28.98;;;13.43;;
17858;SDS011;35426;30.698;104.050;2023-08-21T10:12:05;32.38;;;13.55;;
17858;SDS011;35426;30.698;104.050;2023-08-21T10:14:41;31.58;;;13.20;;
17858;SDS011;35426;30.698;104.050;2023-08-21T10:17:14;29.55;;;13.25;;
17858;SDS011;35426;30.698;104.050;2023-08-21T10:19:50;30.83;;;13.45;;
17858;SDS011;35426;30.698;104.050;2023-08-21T10:22:39;28.58;;;13.23;;
17858;SDS011;35426;30.698;104.050;2023-08-21T10:25:16;32.08;;;13.90;;
17858;SDS011;35426;30.698;104.050;2023-08-21T10:27:58;30.48;;;13.13;;
17858;SDS011;35426;30.698;104.050;2023-08-21T10:30:33;29.50;;;12.93;;
17858;SDS011;35426;30.698;104.050;2023-08-21T10:33:07;35.15;;;13.85;;
17858;SDS011;35426;30.698;104.050;2023-08-21T10:35:40;32.30;;;13.68;;
17858;SDS011;35426;30.698;104.050;2023-08-21T10:38:17;34.42;;;15.23;;
17858;SDS011;35426;30.698;104.050;2023-08-21T10:41:07;31.15;;;14.57;;
17858;SDS011;35426;30.698;104.050;2023-08-21T10:43:40;35.92;;;14.73;;
17858;SDS011;35426;30.698;104.050;2023-08-21T10:46:16;32.20;;;14.55;;
17858;SDS011;35426;30.698;104.050;2023-08-21T10:48:50;27.77;;;13.82;;
17858;SDS011;35426;30.698;104.050;2023-08-21T10:51:24;26.88;;;13.93;;
17858;SDS011;35426;30.698;104.050;2023-08-21T10:54:10;28.98;;;14.10;;
17858;SDS011;35426;30.698;104.050;2023-08-21T10:56:46;29.30;;;13.27;;
17858;SDS011;35426;30.698;104.050;2023-08-21T10:59:19;29.08;;;13.20;;
17858;SDS011;35426;30.698;104.050;2023-08-21T11:01:53;27.35;;;13.05;;
17858;SDS011;35426;30.698;104.050;2023-08-21T11:04:26;28.67;;;14.15;;
17858;SDS011;35426;30.698;104.050;2023-08-21T11:06:59;25.17;;;13.65;;
17858;SDS011;35426;30.698;104.050;2023-08-21T11:09:35;23.00;;;13.75;;
17858;SDS011;35426;30.698;104.050;2023-08-21T11:12:11;26.65;;;14.18;;
17858;SDS011;35426;30.698;104.050;2023-08-21T11:14:45;31.80;;;15.13;;
17858;SDS011;35426;30.698;104.050;2023-08-21T11:17:18;33.53;;;13.63;;
17858;SDS011;35426;30.698;104.050;2023-08-21T11:19:52;24.75;;;14.98;;
17858;SDS011;35426;30.698;104.050;2023-08-21T11:22:28;32.00;;;14.80;;
17858;SDS011;35426;30.698;104.050;2023-08-21T11:25:03;25.02;;;13.65;;
17858;SDS011;35426;30.698;104.050;2023-08-21T11:27:39;34.70;;;15.40;;
17858;SDS011;35426;30.698;104.050;2023-08-21T11:30:12;32.80;;;15.77;;
17858;SDS011;35426;30.698;104.050;2023-08-21T11:32:46;34.28;;;16.42;;
17858;SDS011;35426;30.698;104.050;2023-08-21T11:35:19;34.67;;;16.23;;
17858;SDS011;35426;30.698;104.050;2023-08-21T11:37:52;37.30;;;16.30;;
17858;SDS011;35426;30.698;104.050;2023-08-21T11:40:26;42.30;;;17.98;;
17858;SDS011;35426;30.698;104.050;2023-08-21T11:43:02;38.47;;;17.33;;
17858;SDS011;35426;30.698;104.050;2023-08-21T11:45:37;41.53;;;17.10;;
17858;SDS011;35426;30.698;104.050;2023-08-21T11:48:25;37.67;;;18.20;;
17858;SDS011;35426;30.698;104.050;2023-08-21T11:50:59;43.33;;;17.92;;
17858;SDS011;35426;30.698;104.050;2023-08-21T11:53:33;37.92;;;17.92;;
17858;SDS011;35426;30.698;104.050;2023-08-21T11:56:11;36.88;;;17.38;;
17858;SDS011;35426;30.698;104.050;2023-08-21T11:58:47;33.50;;;17.35;;
17858;SDS011;35426;30.698;104.050;2023-08-21T12:01:20;32.40;;;16.45;;
17858;SDS011;35426;30.698;104.050;2023-08-21T12:03:54;43.58;;;17.38;;
17858;SDS011;35426;30.698;104.050;2023-08-21T12:06:28;33.72;;;16.42;;
17858;SDS011;35426;30.698;104.050;2023-08-21T12:09:02;37.72;;;17.83;;
17858;SDS011;35426;30.698;104.050;2023-08-21T12:11:35;38.40;;;17.05;;
17858;SDS011;35426;30.698;104.050;2023-08-21T12:14:11;32.60;;;17.23;;
17858;SDS011;35426;30.698;104.050;2023-08-21T12:16:45;32.92;;;16.63;;
17858;SDS011;35426;30.698;104.050;2023-08-21T12:19:19;29.92;;;16.75;;
17858;SDS011;35426;30.698;104.050;2023-08-21T12:21:53;32.50;;;18.27;;
17858;SDS011;35426;30.698;104.050;2023-08-21T12:24:27;36.97;;;17.23;;
17858;SDS011;35426;30.698;104.050;2023-08-21T12:27:01;36.85;;;17.40;;
17858;SDS011;35426;30.698;104.050;2023-08-21T12:29:37;37.15;;;17.10;;
17858;SDS011;35426;30.698;104.050;2023-08-21T12:32:13;43.33;;;17.33;;
17858;SDS011;35426;30.698;104.050;2023-08-21T12:34:46;33.33;;;16.63;;
17858;SDS011;35426;30.698;104.050;2023-08-21T12:37:21;29.42;;;15.50;;
17858;SDS011;35426;30.698;104.050;2023-08-21T12:39:59;29.70;;;16.35;;
17858;SDS011;35426;30.698;104.050;2023-08-21T12:42:32;31.65;;;15.70;;
17858;SDS011;35426;30.698;104.050;2023-08-21T12:45:08;29.02;;;15.63;;
17858;SDS011;35426;30.698;104.050;2023-08-21T12:47:42;33.63;;;17.02;;
17858;SDS011;35426;30.698;104.050;2023-08-21T12:50:16;33.55;;;16.00;;
17858;SDS011;35426;30.698;104.050;2023-08-21T12:52:50;33.40;;;15.75;;
17858;SDS011;35426;30.698;104.050;2023-08-21T12:55:23;32.17;;;15.40;;
17858;SDS011;35426;30.698;104.050;2023-08-21T12:57:56;29.70;;;15.40;;
17858;SDS011;35426;30.698;104.050;2023-08-21T13:00:31;34.50;;;15.23;;
17858;SDS011;35426;30.698;104.050;2023-08-21T13:03:04;27.83;;;15.30;;
17858;SDS011;35426;30.698;104.050;2023-08-21T13:05:42;30.42;;;15.38;;
17858;SDS011;35426;30.698;104.050;2023-08-21T13:08:15;31.83;;;15.45;;
17858;SDS011;35426;30.698;104.050;2023-08-21T13:10:51;33.65;;;15.80;;
17858;SDS011;35426;30.698;104.050;2023-08-21T13:13:27;27.52;;;15.07;;
17858;SDS011;35426;30.698;104.050;2023-08-21T13:16:02;35.30;;;15.50;;
17858;SDS011;35426;30.698;104.050;2023-08-21T13:18:35;29.25;;;15.30;;
17858;SDS011;35426;30.698;104.050;2023-08-21T13:21:08;26.55;;;13.93;;
17858;SDS011;35426;30.698;104.050;2023-08-21T13:23:42;29.95;;;14.57;;
17858;SDS011;35426;30.698;104.050;2023-08-21T13:26:17;24.38;;;14.63;;
17858;SDS011;35426;30.698;104.050;2023-08-21T13:28:52;26.73;;;13.20;;
17858;SDS011;35426;30.698;104.050;2023-08-21T13:31:30;27.20;;;12.60;;
17858;SDS011;35426;30.698;104.050;2023-08-21T13:34:04;28.25;;;13.05;;
17858;SDS011;35426;30.698;104.050;2023-08-21T13:36:37;33.65;;;13.80;;
17858;SDS011;35426;30.698;104.050;2023-08-21T13:39:16;28.25;;;12.77;;
17858;SDS011;35426;30.698;104.050;2023-08-21T13:41:49;32.72;;;13.73;;
17858;SDS011;35426;30.698;104.050;2023-08-21T13:44:23;26.38;;;13.00;;
17858;SDS011;35426;30.698;104.050;2023-08-21T13:46:58;22.52;;;12.23;;
17858;SDS011;35426;30.698;104.050;2023-08-21T13:49:32;26.52;;;12.43;;
17858;SDS011;35426;30.698;104.050;2023-08-21T13:52:08;28.95;;;12.48;;
17858;SDS011;35426;30.698;104.050;2023-08-21T13:54:41;28.40;;;12.10;;
17858;SDS011;35426;30.698;104.050;2023-08-21T13:57:14;29.15;;;11.90;;
17858;SDS011;35426;30.698;104.050;2023-08-21T13:59:48;27.42;;;11.43;;
17858;SDS011;35426;30.698;104.050;2023-08-21T14:02:26;25.73;;;11.57;;
17858;SDS011;35426;30.698;104.050;2023-08-21T14:04:59;26.65;;;11.82;;
17858;SDS011;35426;30.698;104.050;2023-08-21T14:07:33;21.83;;;12.18;;
17858;SDS011;35426;30.698;104.050;2023-08-21T14:10:08;21.83;;;12.25;;
17858;SDS011;35426;30.698;104.050;2023-08-21T14:12:43;29.23;;;12.85;;
17858;SDS011;35426;30.698;104.050;2023-08-21T14:15:15;26.55;;;12.48;;
17858;SDS011;35426;30.698;104.050;2023-08-21T14:17:51;22.85;;;12.27;;
17858;SDS011;35426;30.698;104.050;2023-08-21T14:20:24;23.80;;;12.23;;
17858;SDS011;35426;30.698;104.050;2023-08-21T14:22:57;25.33;;;12.00;;
17858;SDS011;35426;30.698;104.050;2023-08-21T14:25:30;23.73;;;12.30;;
17858;SDS011;35426;30.698;104.050;2023-08-21T14:28:03;25.52;;;12.18;;
17858;SDS011;35426;30.698;104.050;2023-08-21T14:30:38;21.50;;;11.95;;
17858;SDS011;35426;30.698;104.050;2023-08-21T14:33:13;26.30;;;13.35;;
17858;SDS011;35426;30.698;104.050;2023-08-21T14:35:46;26.30;;;13.07;;
17858;SDS011;35426;30.698;104.050;2023-08-21T14:38:20;28.38;;;13.80;;
17858;SDS011;35426;30.698;104.050;2023-08-21T14:40:53;32.03;;;14.75;;